Time;durP1;ratioP1;P1;durP2;ratioP2;P2;SDS_P1;SDS_P2;PMS_P1;PMS_P2;Temp;Humidity;BMP_temperature;BMP_pressure;BME280_temperature;BME280_humidity;BME280_pressure;Samples;Min_cycle;Max_cycle;Signal;HPM_P1;HPM_P2
2022/11/18 00:00:26;;;;;;;27.95;21.15;;;14.60;82.30;;;;;;4589564;19;20022;-21
2022/11/18 00:02:05;;;;;;;28.70;21.87;;;14.60;82.40;;;;;;4588858;19;20011;-21
2022/11/18 00:03:36;;;;;;;25.48;20.73;;;14.60;82.30;;;;;;4589331;19;20006;-22
2022/11/18 00:05:09;;;;;;;27.10;20.88;;;14.60;82.20;;;;;;4589550;19;20462;-21
2022/11/18 00:06:40;;;;;;;24.80;20.27;;;14.50;82.20;;;;;;4588912;19;20015;-21
2022/11/18 00:08:11;;;;;;;26.05;20.35;;;14.60;82.10;;;;;;4591654;19;20477;-22
2022/11/18 00:09:42;;;;;;;25.25;19.95;;;14.60;82.20;;;;;;4590580;19;20010;-21
2022/11/18 00:15:00;;;;;;;25.07;20.00;;;14.50;82.30;;;;;;4590739;19;20010;-21
2022/11/18 00:16:31;;;;;;;24.38;19.15;;;14.50;82.20;;;;;;4591315;19;20007;-22
2022/11/18 00:18:02;;;;;;;22.73;17.90;;;14.50;82.20;;;;;;4588937;19;20015;-21
2022/11/18 00:19:37;;;;;;;24.88;18.05;;;14.60;82.40;;;;;;4589727;19;20014;-21
2022/11/18 00:21:10;;;;;;;22.97;17.47;;;14.50;82.20;;;;;;4590191;19;20510;-22
2022/11/18 00:22:41;;;;;;;23.07;18.40;;;14.50;82.40;;;;;;4588872;19;20018;-23
2022/11/18 00:24:12;;;;;;;24.40;18.17;;;14.60;82.60;;;;;;4589637;19;20013;-22
2022/11/18 00:25:42;;;;;;;23.42;18.25;;;14.60;82.50;;;;;;4589081;19;20014;-22
2022/11/18 00:27:15;;;;;;;23.10;17.85;;;14.60;82.70;;;;;;4589138;19;20497;-21
2022/11/18 00:28:46;;;;;;;23.97;17.87;;;14.60;82.80;;;;;;4588576;19;20025;-21
2022/11/18 00:30:17;;;;;;;23.77;18.45;;;14.60;82.70;;;;;;4591196;19;20014;-24
2022/11/18 00:31:48;;;;;;;21.77;17.38;;;14.50;82.90;;;;;;4589862;19;20436;-23
2022/11/18 00:33:19;;;;;;;22.45;16.90;;;14.60;83.00;;;;;;4590226;19;20487;-23
2022/11/18 00:34:50;;;;;;;21.90;17.92;;;14.60;82.90;;;;;;4590080;19;20018;-22
2022/11/18 00:36:21;;;;;;;22.45;16.70;;;14.60;83.10;;;;;;4590101;19;20333;-23
2022/11/18 00:37:52;;;;;;;22.45;17.30;;;14.50;83.00;;;;;;4589391;19;20025;-22
2022/11/18 00:39:24;;;;;;;22.52;17.70;;;14.60;83.10;;;;;;4588175;19;20765;-22
2022/11/18 00:41:07;;;;;;;21.80;17.07;;;14.60;83.30;;;;;;4588889;19;20022;-21
2022/11/18 00:42:50;;;;;;;23.40;17.63;;;14.60;83.20;;;;;;4588794;19;20025;-21
2022/11/18 00:44:20;;;;;;;21.33;16.87;;;14.50;83.20;;;;;;4588774;19;20048;-22
2022/11/18 00:45:52;;;;;;;22.25;17.42;;;14.60;83.00;;;;;;4588142;19;20029;-21
2022/11/18 00:47:23;;;;;;;20.08;16.23;;;14.60;83.10;;;;;;4588665;19;20011;-23
2022/11/18 00:48:54;;;;;;;23.67;17.83;;;14.60;83.10;;;;;;4590593;19;20043;-23
2022/11/18 00:50:25;;;;;;;20.98;16.45;;;14.50;83.30;;;;;;4589982;19;20018;-21
2022/11/18 00:51:56;;;;;;;20.83;17.00;;;14.60;83.40;;;;;;4590450;19;20026;-21
2022/11/18 00:53:27;;;;;;;23.23;18.40;;;14.60;83.50;;;;;;4589827;19;20010;-22
2022/11/18 00:54:58;;;;;;;19.85;17.15;;;14.50;83.60;;;;;;4589844;19;20010;-22
2022/11/18 00:56:29;;;;;;;20.55;16.33;;;14.50;83.70;;;;;;4593011;19;20007;-22
2022/11/18 00:58:00;;;;;;;23.45;16.60;;;14.60;83.70;;;;;;4591828;19;20551;-21
2022/11/18 00:59:32;;;;;;;20.92;16.23;;;14.60;84.00;;;;;;4593819;19;20337;-21
2022/11/18 01:01:03;;;;;;;18.67;16.17;;;14.60;83.90;;;;;;4594764;19;20013;-21
2022/11/18 01:02:34;;;;;;;20.83;16.77;;;14.60;83.80;;;;;;4594256;19;20576;-22
2022/11/18 01:04:05;;;;;;;20.52;16.38;;;14.60;83.90;;;;;;4594242;19;20011;-23
2022/11/18 01:05:36;;;;;;;22.13;17.35;;;14.60;83.70;;;;;;4595140;19;19998;-22
2022/11/18 01:07:07;;;;;;;19.35;16.15;;;14.60;83.90;;;;;;4593839;19;20018;-21
2022/11/18 01:08:39;;;;;;;21.63;16.25;;;14.60;83.70;;;;;;4594623;19;20014;-21
2022/11/18 01:10:10;;;;;;;19.52;16.13;;;14.60;83.80;;;;;;4594175;19;20342;-22
2022/11/18 01:13:30;;;;;;;18.00;14.70;;;14.50;83.80;;;;;;4596272;19;20015;-21
2022/11/18 01:15:01;;;;;;;18.40;14.57;;;14.60;84.10;;;;;;4594606;19;20010;-24
2022/11/18 01:16:32;;;;;;;19.40;15.80;;;14.50;84.10;;;;;;4594245;19;20010;-22
2022/11/18 01:18:03;;;;;;;19.88;15.60;;;14.60;84.10;;;;;;4593857;19;20484;-22
2022/11/18 01:19:35;;;;;;;17.73;14.73;;;14.60;84.10;;;;;;4592884;19;20017;-22
2022/11/18 01:21:06;;;;;;;20.65;15.65;;;14.50;84.00;;;;;;4594404;19;20006;-21
2022/11/18 01:22:37;;;;;;;17.20;14.90;;;14.60;84.10;;;;;;4594112;19;20034;-21
2022/11/18 01:24:09;;;;;;;18.85;15.02;;;14.60;84.10;;;;;;4594615;19;20022;-22
2022/11/18 01:25:42;;;;;;;20.10;16.13;;;14.60;84.40;;;;;;4592642;19;20017;-22
2022/11/18 01:27:13;;;;;;;20.63;15.77;;;14.60;84.40;;;;;;4593067;19;20006;-24
2022/11/18 01:28:44;;;;;;;21.27;15.20;;;14.50;84.50;;;;;;4591734;19;20018;-22
2022/11/18 01:30:18;;;;;;;22.02;16.75;;;14.60;84.60;;;;;;4591455;19;20014;-22
2022/11/18 01:31:49;;;;;;;19.33;16.00;;;14.50;84.70;;;;;;4591572;19;20002;-22
2022/11/18 01:33:20;;;;;;;19.13;16.45;;;14.50;84.80;;;;;;4592092;19;20006;-21
2022/11/18 01:34:51;;;;;;;18.15;15.90;;;14.60;84.60;;;;;;4591919;19;20002;-24
2022/11/18 01:36:24;;;;;;;18.23;15.50;;;14.50;84.60;;;;;;4591716;19;20041;-23
2022/11/18 01:37:56;;;;;;;18.57;15.80;;;14.50;84.60;;;;;;4591432;19;20352;-24
2022/11/18 01:39:28;;;;;;;20.40;16.53;;;14.50;84.60;;;;;;4589960;19;20475;-21
2022/11/18 01:40:59;;;;;;;22.37;17.33;;;14.50;84.70;;;;;;4591693;19;20002;-23
2022/11/18 01:42:30;;;;;;;21.35;17.35;;;14.50;84.60;;;;;;4591585;19;20020;-26
2022/11/18 01:44:01;;;;;;;20.65;17.05;;;14.50;84.50;;;;;;4591769;19;20372;-22
2022/11/18 01:45:33;;;;;;;21.60;16.92;;;14.60;84.70;;;;;;4591004;19;20035;-24
2022/11/18 01:47:04;;;;;;;18.50;16.03;;;14.60;84.70;;;;;;4591944;19;20006;-21
2022/11/18 01:48:35;;;;;;;19.70;15.98;;;14.50;84.50;;;;;;4592228;19;20106;-22
2022/11/18 01:50:07;;;;;;;21.00;17.08;;;14.60;84.80;;;;;;4593013;19;20010;-21
2022/11/18 01:51:49;;;;;;;21.27;17.23;;;14.60;84.50;;;;;;4592000;19;20102;-21
2022/11/18 01:53:28;;;;;;;23.50;17.83;;;14.50;84.80;;;;;;4593571;19;20015;-22
2022/11/18 01:55:05;;;;;;;21.17;16.73;;;14.50;84.70;;;;;;4591504;19;20019;-24
2022/11/18 01:56:41;;;;;;;19.90;17.63;;;14.50;84.80;;;;;;4593058;19;20018;-22
2022/11/18 01:58:17;;;;;;;20.63;17.80;;;14.60;84.70;;;;;;4593224;19;20029;-22
2022/11/18 01:59:49;;;;;;;19.80;16.43;;;14.50;84.50;;;;;;4592038;19;20015;-22
2022/11/18 02:01:20;;;;;;;;;;;14.50;84.80;;;;;;4593374;19;20362;-22
2022/11/18 02:02:51;;;;;;;21.53;17.70;;;14.50;85.10;;;;;;4591365;19;19943;-21
2022/11/18 02:04:22;;;;;;;21.67;18.25;;;14.50;85.50;;;;;;4592786;19;20019;-22
2022/11/18 02:05:53;;;;;;;21.48;18.95;;;14.60;85.90;;;;;;4591466;19;20011;-21
2022/11/18 02:07:24;;;;;;;19.00;16.90;;;14.60;85.80;;;;;;4590630;19;20011;-21
2022/11/18 02:08:56;;;;;;;20.60;18.38;;;14.60;86.00;;;;;;4594253;19;20014;-22
2022/11/18 02:10:26;;;;;;;21.73;18.27;;;14.60;86.00;;;;;;4594968;19;20087;-25
2022/11/18 02:11:57;;;;;;;20.35;17.98;;;14.60;86.10;;;;;;4591968;19;20074;-21
2022/11/18 02:13:31;;;;;;;20.13;17.90;;;14.60;86.10;;;;;;4593973;19;20017;-22
2022/11/18 02:15:02;;;;;;;20.97;18.50;;;14.60;86.80;;;;;;4594821;19;20011;-21
2022/11/18 02:16:56;;;;;;;19.60;17.48;;;14.60;86.80;;;;;;4592588;19;20032;-21
2022/11/18 02:18:59;;;;;;;22.27;19.10;;;14.60;86.60;;;;;;4592309;19;20097;-21
2022/11/18 02:20:43;;;;;;;20.17;17.90;;;14.60;86.40;;;;;;4594130;19;20015;-21
2022/11/18 02:22:42;;;;;;;21.13;17.73;;;14.60;86.70;;;;;;4592561;19;20026;-22
2022/11/18 02:24:36;;;;;;;20.10;18.00;;;14.60;86.80;;;;;;4593996;19;20018;-20
2022/11/18 02:26:28;;;;;;;21.37;17.43;;;14.60;86.60;;;;;;4592160;19;20022;-22
2022/11/18 02:28:20;;;;;;;19.60;17.50;;;14.60;86.60;;;;;;4594734;19;20497;-22
2022/11/18 02:29:55;;;;;;;20.60;17.50;;;14.60;86.60;;;;;;4593964;19;20010;-22
2022/11/18 02:31:59;;;;;;;21.63;19.33;;;14.60;86.70;;;;;;4591618;19;19999;-25
2022/11/18 02:33:34;;;;;;;20.90;17.73;;;14.60;86.70;;;;;;4593028;19;20021;-23
2022/11/18 02:35:26;;;;;;;20.33;16.67;;;14.60;86.70;;;;;;4590477;19;20440;-25
2022/11/18 02:37:03;;;;;;;20.25;17.48;;;14.60;87.50;;;;;;4591723;19;20507;-21
2022/11/18 02:38:40;;;;;;;20.37;17.43;;;14.60;86.80;;;;;;4590452;19;20301;-22
2022/11/18 02:40:13;;;;;;;22.83;17.27;;;14.60;86.80;;;;;;4588935;19;20010;-21
2022/11/18 02:41:44;;;;;;;18.63;16.63;;;14.60;86.80;;;;;;4592145;19;20018;-22
2022/11/18 02:43:23;;;;;;;18.83;16.80;;;14.60;87.60;;;;;;4591315;19;20014;-21
2022/11/18 02:44:58;;;;;;;19.20;16.67;;;14.60;86.90;;;;;;4590146;19;20019;-21
2022/11/18 02:46:32;;;;;;;19.27;17.10;;;14.60;86.80;;;;;;4590508;19;20018;-22
2022/11/18 02:48:07;;;;;;;18.17;16.37;;;14.60;86.90;;;;;;4590607;19;20014;-21
2022/11/18 02:49:45;;;;;;;17.97;16.07;;;14.60;86.90;;;;;;4590724;19;20025;-22
2022/11/18 02:51:22;;;;;;;19.03;17.00;;;14.60;87.20;;;;;;4590209;19;20010;-21
2022/11/18 02:52:56;;;;;;;18.07;16.20;;;14.60;87.10;;;;;;4590383;19;20011;-21
2022/11/18 02:54:27;;;;;;;18.73;16.77;;;14.60;87.10;;;;;;4590435;19;20013;-21
2022/11/18 02:55:58;;;;;;;17.23;15.43;;;14.60;87.10;;;;;;4590514;19;20010;-22
2022/11/18 02:57:29;;;;;;;16.27;14.50;;;14.60;87.10;;;;;;4590158;19;20006;-23
2022/11/18 02:59:02;;;;;;;17.20;14.88;;;14.60;87.20;;;;;;4589897;19;20011;-21
2022/11/18 03:00:33;;;;;;;17.53;15.10;;;14.60;87.20;;;;;;4590126;19;20010;-20
2022/11/18 03:02:05;;;;;;;16.70;14.88;;;14.60;87.00;;;;;;4590357;19;20002;-21
2022/11/18 03:03:37;;;;;;;16.97;14.57;;;14.60;87.10;;;;;;4589784;19;20015;-22
2022/11/18 03:05:24;;;;;;;17.58;15.77;;;14.60;87.20;;;;;;4590067;19;20471;-22
2022/11/18 03:06:59;;;;;;;16.37;14.67;;;14.60;87.10;;;;;;4590354;19;20069;-23
2022/11/18 03:08:54;;;;;;;16.90;14.53;;;14.60;87.00;;;;;;4590090;19;20039;-23
2022/11/18 03:10:27;;;;;;;16.83;15.07;;;14.60;87.20;;;;;;4589362;19;20468;-21
2022/11/18 03:12:13;;;;;;;15.50;13.57;;;14.60;86.90;;;;;;4589523;19;20011;-21
2022/11/18 03:14:04;;;;;;;16.13;14.53;;;14.60;87.10;;;;;;4589961;19;20023;-21
2022/11/18 03:15:54;;;;;;;15.97;14.33;;;14.60;87.00;;;;;;4589561;19;20400;-21
2022/11/18 03:17:30;;;;;;;14.33;12.90;;;14.60;87.10;;;;;;4589234;19;20010;-22
2022/11/18 03:19:19;;;;;;;15.53;14.00;;;14.60;86.90;;;;;;4586786;19;20011;-21
2022/11/18 03:21:00;;;;;;;13.87;11.83;;;14.50;86.90;;;;;;4589722;19;20480;-23
2022/11/18 03:22:47;;;;;;;12.30;10.57;;;14.60;86.90;;;;;;4589440;19;20035;-21
2022/11/18 03:24:31;;;;;;;9.50;8.50;;;14.50;86.80;;;;;;4589671;19;20022;-22
2022/11/18 03:26:15;;;;;;;8.47;7.07;;;14.60;86.30;;;;;;4589669;19;20462;-21
2022/11/18 03:27:51;;;;;;;7.77;6.63;;;14.50;86.20;;;;;;4589734;19;20011;-21
2022/11/18 03:29:25;;;;;;;6.17;5.57;;;14.50;85.80;;;;;;4589312;19;20017;-21
2022/11/18 03:31:43;;;;;;;6.50;5.00;;;14.50;85.50;;;;;;4589267;19;20483;-21
2022/11/18 03:33:18;;;;;;;6.93;6.20;;;14.50;85.20;;;;;;4588694;19;20039;-21
2022/11/18 03:34:51;;;;;;;6.53;5.87;;;14.50;85.30;;;;;;4589115;19;20468;-21
2022/11/18 03:36:23;;;;;;;6.40;5.70;;;14.50;85.20;;;;;;4589571;19;20026;-22
2022/11/18 03:38:00;;;;;;;5.97;4.93;;;14.50;85.20;;;;;;4588983;19;20406;-21
2022/11/18 03:39:33;;;;;;;5.13;4.50;;;14.60;85.30;;;;;;4588101;19;20023;-20
2022/11/18 03:41:05;;;;;;;5.30;4.80;;;14.50;85.20;;;;;;4589215;19;20006;-21
2022/11/18 03:42:39;;;;;;;5.17;4.27;;;14.50;85.10;;;;;;4589017;19;20007;-22
2022/11/18 03:44:25;;;;;;;4.80;4.10;;;14.50;85.00;;;;;;4588994;19;20026;-22
2022/11/18 03:46:06;;;;;;;5.50;4.10;;;14.50;84.70;;;;;;4589612;19;20011;-21
2022/11/18 03:47:39;;;;;;;4.80;3.90;;;14.50;84.40;;;;;;4588869;19;20011;-21
2022/11/18 03:49:18;;;;;;;4.50;3.80;;;14.50;84.10;;;;;;4588853;19;20014;-21
2022/11/18 03:50:56;;;;;;;5.77;3.93;;;14.50;84.00;;;;;;4589025;19;20011;-22
2022/11/18 03:52:29;;;;;;;5.00;4.00;;;14.50;83.80;;;;;;4588873;19;20014;-22
2022/11/18 03:54:05;;;;;;;5.20;4.00;;;14.50;83.60;;;;;;4588697;19;20014;-22
2022/11/18 03:55:41;;;;;;;4.60;3.73;;;14.50;83.60;;;;;;4588976;19;20342;-22
2022/11/18 03:57:40;;;;;;;5.87;4.37;;;14.50;83.50;;;;;;4588870;19;20010;-21
2022/11/18 03:59:14;;;;;;;5.30;4.27;;;14.50;83.50;;;;;;4588467;19;20022;-21
2022/11/18 04:00:47;;;;;;;5.27;4.13;;;14.50;83.90;;;;;;4589137;19;20455;-21
2022/11/18 04:02:22;;;;;;;4.50;3.73;;;14.50;83.10;;;;;;4588445;19;20019;-22
2022/11/18 04:03:53;;;;;;;4.47;3.60;;;14.50;83.10;;;;;;4588554;19;20026;-21
2022/11/18 04:05:25;;;;;;;4.53;3.38;;;14.50;83.00;;;;;;4588543;19;20006;-21
2022/11/18 04:07:01;;;;;;;4.43;3.43;;;14.50;82.80;;;;;;4589075;19;20048;-22
2022/11/18 04:08:35;;;;;;;3.60;2.80;;;14.50;82.40;;;;;;4588354;19;20026;-21
2022/11/18 04:10:25;;;;;;;4.23;3.27;;;14.50;82.40;;;;;;4588363;19;20013;-23
2022/11/18 04:12:01;;;;;;;4.70;3.80;;;14.50;82.00;;;;;;4589521;19;20006;-21
2022/11/18 04:13:35;;;;;;;5.50;3.53;;;14.50;81.90;;;;;;4589569;19;20029;-22
2022/11/18 04:15:06;;;;;;;5.13;2.93;;;14.50;81.90;;;;;;4590625;19;20016;-21
2022/11/18 04:16:41;;;;;;;5.35;3.28;;;14.50;81.90;;;;;;4590678;19;20006;-21
2022/11/18 04:18:13;;;;;;;4.07;3.50;;;14.50;81.80;;;;;;4589832;19;20015;-23
2022/11/18 04:19:44;;;;;;;4.13;3.55;;;14.50;81.60;;;;;;4589153;19;20532;-21
2022/11/18 04:21:16;;;;;;;4.13;3.17;;;14.50;81.60;;;;;;4590385;19;20018;-21
2022/11/18 04:22:48;;;;;;;4.00;3.37;;;14.50;81.40;;;;;;4590455;19;20036;-21
2022/11/18 04:24:18;;;;;;;5.00;3.53;;;14.50;81.40;;;;;;4590830;19;20366;-21
2022/11/18 04:25:49;;;;;;;5.70;3.95;;;14.50;81.50;;;;;;4590916;19;20028;-22
2022/11/18 04:27:22;;;;;;;4.55;3.25;;;14.50;81.40;;;;;;4590235;19;20345;-22
2022/11/18 04:28:53;;;;;;;6.33;3.97;;;14.50;81.20;;;;;;4590624;19;20010;-21
2022/11/18 04:30:24;;;;;;;4.50;3.70;;;14.50;81.10;;;;;;4589362;19;20470;-25
2022/11/18 04:31:55;;;;;;;4.15;2.92;;;14.50;81.20;;;;;;4589490;19;20007;-22
2022/11/18 04:33:26;;;;;;;4.20;3.10;;;14.50;81.10;;;;;;4589168;19;20006;-22
2022/11/18 04:34:57;;;;;;;4.43;3.42;;;14.50;81.20;;;;;;4590504;19;20010;-23
2022/11/18 04:36:28;;;;;;;4.88;3.40;;;14.60;81.10;;;;;;4590734;19;20013;-21
2022/11/18 04:37:59;;;;;;;4.60;3.20;;;14.70;80.90;;;;;;4590986;19;20014;-23
2022/11/18 04:39:30;;;;;;;3.80;3.38;;;14.70;80.50;;;;;;4587907;19;20014;-22
2022/11/18 04:41:05;;;;;;;4.23;3.37;;;14.70;80.40;;;;;;4588142;19;20022;-22
2022/11/18 04:42:37;;;;;;;3.67;2.92;;;14.80;80.10;;;;;;4591052;19;19999;-22
2022/11/18 04:44:11;;;;;;;3.60;3.10;;;14.80;79.90;;;;;;4589436;19;20040;-21
2022/11/18 04:45:43;;;;;;;4.33;3.30;;;14.90;79.70;;;;;;4589809;19;20010;-23
2022/11/18 04:47:13;;;;;;;3.08;2.40;;;14.90;79.60;;;;;;4590315;19;20014;-21
2022/11/18 04:48:44;;;;;;;3.40;2.53;;;14.90;79.40;;;;;;4590660;19;20007;-21
2022/11/18 04:50:16;;;;;;;4.32;3.28;;;14.90;79.60;;;;;;4589986;19;20027;-22
2022/11/18 04:51:47;;;;;;;3.25;2.65;;;14.90;79.70;;;;;;4589625;19;20475;-22
2022/11/18 04:53:18;;;;;;;3.83;2.40;;;14.90;79.70;;;;;;4588570;19;20022;-21
2022/11/18 04:54:49;;;;;;;4.22;3.03;;;14.90;80.00;;;;;;4589595;19;20022;-22
2022/11/18 04:56:20;;;;;;;3.90;3.17;;;14.90;80.10;;;;;;4589908;19;20011;-21
2022/11/18 04:57:51;;;;;;;4.10;3.20;;;14.90;80.00;;;;;;4589795;19;20066;-23
2022/11/18 04:59:29;;;;;;;3.35;2.63;;;14.90;79.80;;;;;;4590059;19;20006;-21
2022/11/18 05:01:00;;;;;;;3.50;2.63;;;14.90;79.50;;;;;;4589937;19;20043;-21
2022/11/18 05:02:31;;;;;;;3.30;2.60;;;14.80;79.70;;;;;;4589978;19;20011;-24
2022/11/18 05:04:03;;;;;;;3.40;2.60;;;14.80;79.60;;;;;;4590233;19;20019;-22
2022/11/18 05:05:34;;;;;;;3.60;2.78;;;14.70;80.20;;;;;;4589797;19;20018;-22
2022/11/18 05:07:06;;;;;;;3.15;2.50;;;14.70;80.70;;;;;;4588893;19;20017;-21
2022/11/18 05:08:38;;;;;;;4.60;3.57;;;14.70;80.40;;;;;;4589267;19;20023;-22
2022/11/18 05:10:09;;;;;;;3.58;2.92;;;14.70;80.40;;;;;;4589195;19;20010;-21
2022/11/18 05:13:30;;;;;;;3.73;2.53;;;14.80;80.00;;;;;;4590200;19;20472;-21
2022/11/18 05:15:01;;;;;;;3.50;2.70;;;14.80;80.10;;;;;;4587676;19;20501;-21
2022/11/18 05:16:32;;;;;;;3.53;2.70;;;14.80;80.10;;;;;;4588189;19;20014;-23
2022/11/18 05:18:03;;;;;;;3.70;2.88;;;14.90;80.10;;;;;;4588378;19;20018;-22
2022/11/18 05:19:37;;;;;;;4.80;3.70;;;14.90;80.00;;;;;;4589120;19;20029;-21
2022/11/18 05:21:08;;;;;;;5.13;4.07;;;14.90;80.00;;;;;;4588185;19;20112;-23
2022/11/18 05:22:39;;;;;;;4.30;3.22;;;14.90;79.70;;;;;;4588697;19;20014;-21
2022/11/18 05:24:11;;;;;;;;;;;14.90;79.70;;;;;;4589182;19;20015;-21
2022/11/18 05:25:42;;;;;;;4.63;3.00;;;14.90;79.70;;;;;;4588120;19;19918;-23
2022/11/18 05:27:14;;;;;;;4.70;3.20;;;14.90;79.60;;;;;;4588282;19;20479;-23
2022/11/18 05:28:45;;;;;;;4.07;2.75;;;14.90;79.40;;;;;;4587271;19;20020;-22
2022/11/18 05:30:18;;;;;;;3.77;2.70;;;14.90;79.40;;;;;;4588202;19;20486;-22
2022/11/18 05:31:49;;;;;;;3.92;2.75;;;14.90;79.40;;;;;;4587924;19;20330;-23
2022/11/18 05:33:20;;;;;;;3.25;2.40;;;14.90;79.60;;;;;;4588952;19;20027;-23
2022/11/18 05:34:51;;;;;;;3.97;3.03;;;14.90;79.90;;;;;;4589033;19;20471;-22
2022/11/18 05:36:23;;;;;;;3.03;2.60;;;14.80;79.80;;;;;;4588333;19;20038;-22
2022/11/18 05:37:54;;;;;;;3.80;3.30;;;14.80;79.90;;;;;;4589248;19;20017;-22
2022/11/18 05:39:25;;;;;;;3.60;2.85;;;14.80;79.70;;;;;;4588251;19;20569;-24
2022/11/18 05:40:57;;;;;;;5.45;3.00;;;14.80;79.80;;;;;;4586874;19;20034;-22
2022/11/18 05:44:17;;;;;;;4.37;3.30;;;14.70;79.80;;;;;;4593302;19;20411;-22
2022/11/18 05:45:49;;;;;;;3.30;2.77;;;14.70;79.90;;;;;;4592041;19;20034;-22
2022/11/18 05:47:23;;;;;;;3.72;3.05;;;14.70;79.80;;;;;;4591499;19;20031;-21
2022/11/18 05:48:54;;;;;;;3.87;3.10;;;14.70;80.00;;;;;;4592851;19;20029;-21
2022/11/18 05:50:25;;;;;;;3.15;2.80;;;14.70;79.90;;;;;;4594388;19;20015;-24
2022/11/18 05:51:56;;;;;;;4.88;3.50;;;14.70;79.90;;;;;;4593847;19;20017;-22
2022/11/18 05:53:27;;;;;;;4.20;3.63;;;14.70;80.20;;;;;;4593987;19;20022;-21
2022/11/18 05:54:58;;;;;;;3.88;3.00;;;14.70;80.70;;;;;;4594266;19;20010;-21
2022/11/18 05:56:42;;;;;;;4.53;3.37;;;14.70;80.60;;;;;;4592857;19;20011;-22
2022/11/18 05:58:13;;;;;;;5.38;2.72;;;14.70;80.70;;;;;;4592702;19;20372;-23
2022/11/18 05:59:46;;;;;;;4.87;3.50;;;14.70;80.60;;;;;;4592045;19;20006;-22
2022/11/18 06:01:26;;;;;;;4.32;3.35;;;14.70;80.60;;;;;;4594523;19;20015;-23
2022/11/18 06:02:59;;;;;;;4.37;3.80;;;14.70;81.10;;;;;;4592624;19;20018;-23
2022/11/18 06:04:38;;;;;;;4.87;3.40;;;14.70;80.60;;;;;;4593176;19;20003;-22
2022/11/18 06:06:10;;;;;;;4.30;3.00;;;14.70;80.50;;;;;;4592295;19;20014;-20
2022/11/18 06:07:42;;;;;;;4.23;3.10;;;14.70;80.50;;;;;;4592195;19;20381;-22
2022/11/18 06:09:15;;;;;;;4.07;3.23;;;14.70;80.30;;;;;;4591490;19;20507;-22
2022/11/18 06:10:46;;;;;;;4.17;3.40;;;14.60;80.10;;;;;;4591150;19;20035;-21
2022/11/18 06:12:18;;;;;;;4.32;3.45;;;14.60;80.00;;;;;;4590553;19;20014;-22
2022/11/18 06:14:19;;;;;;;4.13;3.37;;;14.60;80.00;;;;;;4591846;19;20014;-22
2022/11/18 06:15:51;;;;;;;3.77;3.10;;;14.60;80.00;;;;;;4590529;19;20014;-24
2022/11/18 06:17:25;;;;;;;4.20;3.22;;;14.60;80.00;;;;;;4589074;19;20010;-22
2022/11/18 06:18:56;;;;;;;4.83;3.27;;;14.60;79.90;;;;;;4589645;19;20938;-21
2022/11/18 06:20:28;;;;;;;3.83;3.17;;;14.60;80.20;;;;;;4589025;19;20015;-22
2022/11/18 06:22:00;;;;;;;4.68;3.00;;;14.60;80.20;;;;;;4588857;19;20023;-23
2022/11/18 06:23:36;;;;;;;4.28;3.38;;;14.60;80.70;;;;;;4591230;19;20025;-25
2022/11/18 06:25:08;;;;;;;5.03;3.53;;;14.70;80.20;;;;;;4591240;19;20026;-23
2022/11/18 06:26:39;;;;;;;4.88;3.50;;;14.60;80.00;;;;;;4591206;19;20102;-22
2022/11/18 06:28:10;;;;;;;4.00;3.25;;;14.60;80.20;;;;;;4590483;19;20370;-22
2022/11/18 06:29:42;;;;;;;;;;;14.60;80.20;;;;;;4590916;19;20025;-22
2022/11/18 06:31:18;;;;;;;5.17;3.63;;;14.60;80.10;;;;;;4589582;19;20009;-22
2022/11/18 06:32:49;;;;;;;4.60;3.00;;;14.60;80.20;;;;;;4589825;19;20030;-21
2022/11/18 06:34:20;;;;;;;5.07;3.25;;;14.70;80.20;;;;;;4589234;19;20370;-21
2022/11/18 06:35:51;;;;;;;3.80;2.72;;;14.70;80.40;;;;;;4588665;19;20022;-21
2022/11/18 06:37:22;;;;;;;4.35;3.15;;;14.70;80.70;;;;;;4588564;19;20034;-23
2022/11/18 06:38:53;;;;;;;4.70;3.28;;;14.70;80.50;;;;;;4591040;19;20023;-21
2022/11/18 06:40:24;;;;;;;4.85;3.63;;;14.70;80.60;;;;;;4589363;19;20011;-22
2022/11/18 06:41:55;;;;;;;4.63;3.33;;;14.70;80.50;;;;;;4590379;19;20019;-24
2022/11/18 06:43:40;;;;;;;4.07;2.83;;;14.80;80.30;;;;;;4590346;19;20034;-21
2022/11/18 06:45:12;;;;;;;5.40;3.37;;;14.80;80.70;;;;;;4590645;19;20094;-22
2022/11/18 06:46:55;;;;;;;4.07;3.30;;;14.70;80.60;;;;;;4589790;19;20019;-23
2022/11/18 06:48:26;;;;;;;4.20;3.13;;;14.70;81.00;;;;;;4589922;19;20018;-21
2022/11/18 06:49:57;;;;;;;5.22;3.45;;;14.70;80.40;;;;;;4589326;19;20078;-22
2022/11/18 06:51:29;;;;;;;4.88;3.10;;;14.70;80.50;;;;;;4589613;19;20014;-21
2022/11/18 06:53:00;;;;;;;5.32;3.38;;;14.70;80.70;;;;;;4588326;19;20014;-22
2022/11/18 06:54:51;;;;;;;5.55;4.13;;;14.70;80.90;;;;;;4590229;19;20002;-23
2022/11/18 06:56:22;;;;;;;4.70;3.40;;;14.60;80.90;;;;;;4587311;19;20010;-24
2022/11/18 06:57:55;;;;;;;4.63;3.30;;;14.60;80.70;;;;;;4588667;19;20051;-21
2022/11/18 06:59:26;;;;;;;5.00;3.77;;;14.60;80.70;;;;;;4587441;19;20018;-22
2022/11/18 07:01:07;;;;;;;4.32;3.20;;;14.60;80.60;;;;;;4590347;19;20007;-22
2022/11/18 07:05:21;;;;;;;5.27;3.57;;;14.60;80.70;;;;;;4589636;19;20004;-21
2022/11/18 07:06:52;;;;;;;4.32;3.38;;;14.60;80.90;;;;;;4589040;19;20421;-22
2022/11/18 07:08:23;;;;;;;4.95;4.03;;;14.60;80.90;;;;;;4590359;19;20018;-21
2022/11/18 07:09:54;;;;;;;4.78;4.07;;;12.30;83.70;;;;;;4589718;19;20590;-22
2022/11/18 07:11:25;;;;;;;5.30;4.10;;;10.70;87.90;;;;;;4589610;19;20370;-21
2022/11/18 07:12:57;;;;;;;5.78;4.22;;;9.90;88.80;;;;;;4589751;19;20022;-22
2022/11/18 07:14:28;;;;;;;4.70;4.05;;;9.60;90.00;;;;;;4590262;19;20394;-21
2022/11/18 07:16:03;;;;;;;6.10;4.38;;;9.40;90.30;;;;;;4590337;19;20030;-20
2022/11/18 07:17:34;;;;;;;6.60;5.10;;;9.30;90.60;;;;;;4589228;19;20085;-22
2022/11/18 07:19:12;;;;;;;5.95;5.00;;;9.10;91.10;;;;;;4589251;19;20429;-22
2022/11/18 07:20:43;;;;;;;6.27;4.77;;;9.00;90.70;;;;;;4590351;19;20463;-22
2022/11/18 07:22:15;;;;;;;6.18;5.10;;;9.00;91.10;;;;;;4589570;19;20491;-21
2022/11/18 07:23:46;;;;;;;6.80;5.45;;;9.00;91.30;;;;;;4589759;19;20124;-20
2022/11/18 07:25:17;;;;;;;8.82;5.72;;;8.90;91.40;;;;;;4589311;19;20018;-22
2022/11/18 07:26:48;;;;;;;7.65;5.30;;;8.90;92.00;;;;;;4589901;19;20009;-20
2022/11/18 07:28:18;;;;;;;6.82;5.20;;;8.90;91.80;;;;;;4591078;19;20347;-21
2022/11/18 07:29:50;;;;;;;6.20;4.53;;;8.80;91.50;;;;;;4591927;19;20025;-23
2022/11/18 07:31:23;;;;;;;7.20;5.63;;;8.80;91.50;;;;;;4591448;19;20033;-22
2022/11/18 07:32:54;;;;;;;8.52;5.28;;;8.80;91.90;;;;;;4592240;19;20777;-22
2022/11/18 07:34:26;;;;;;;6.93;5.10;;;8.80;91.50;;;;;;4590227;19;20007;-22
2022/11/18 07:36:17;;;;;;;6.90;5.65;;;8.70;91.70;;;;;;4590008;19;20051;-22
2022/11/18 07:37:48;;;;;;;7.33;6.13;;;8.70;91.80;;;;;;4591704;19;19994;-21
2022/11/18 07:39:19;;;;;;;7.20;5.60;;;8.70;92.50;;;;;;4590126;19;20452;-21
2022/11/18 07:40:50;;;;;;;7.22;5.53;;;8.60;92.00;;;;;;4591253;19;20354;-22
2022/11/18 07:42:24;;;;;;;7.05;4.65;;;8.60;92.10;;;;;;4590228;19;20011;-20
2022/11/18 07:43:57;;;;;;;7.13;5.67;;;8.60;92.30;;;;;;4591556;19;20010;-21
2022/11/18 07:45:27;;;;;;;;;;;8.60;92.60;;;;;;4592437;19;20445;-21
2022/11/18 07:46:58;;;;;;;6.67;5.50;;;8.60;92.60;;;;;;4590749;19;19926;-21
2022/11/18 07:48:30;;;;;;;7.40;5.57;;;8.60;92.80;;;;;;4591663;19;20026;-21
2022/11/18 07:50:01;;;;;;;8.00;6.22;;;8.60;93.10;;;;;;4590310;19;20470;-22
2022/11/18 07:51:33;;;;;;;8.45;5.82;;;8.60;93.00;;;;;;4588526;19;20084;-22
2022/11/18 07:53:05;;;;;;;8.93;6.53;;;8.60;92.70;;;;;;4589672;19;20018;-22
2022/11/18 07:54:36;;;;;;;8.63;6.35;;;8.60;92.90;;;;;;4589719;19;20440;-23
2022/11/18 07:56:07;;;;;;;7.60;5.45;;;8.60;92.90;;;;;;4590983;19;20476;-22
2022/11/18 07:57:39;;;;;;;8.73;6.25;;;8.60;92.80;;;;;;4589290;19;20365;-21
2022/11/18 07:59:10;;;;;;;8.07;6.05;;;8.60;92.80;;;;;;4589670;19;20010;-21
2022/11/18 08:00:41;;;;;;;8.90;5.95;;;8.60;93.10;;;;;;4589947;19;20010;-21
2022/11/18 08:02:12;;;;;;;8.05;5.82;;;9.20;93.20;;;;;;4590327;19;20034;-21
2022/11/18 08:03:44;;;;;;;7.28;5.15;;;10.20;92.10;;;;;;4590562;19;20015;-21
2022/11/18 08:05:15;;;;;;;;;;;11.10;91.10;;;;;;4589159;19;20006;-20
2022/11/18 08:06:46;;;;;;;8.07;5.53;;;11.70;90.30;;;;;;4590739;19;19923;-21
2022/11/18 08:08:17;;;;;;;7.80;5.25;;;12.10;89.80;;;;;;4589712;19;21119;-22
2022/11/18 08:09:48;;;;;;;7.70;5.55;;;12.40;89.20;;;;;;4590171;19;20015;-22
2022/11/18 08:11:20;;;;;;;7.03;5.15;;;12.60;88.50;;;;;;4590837;19;20480;-21
2022/11/18 08:12:51;;;;;;;7.47;5.60;;;12.80;87.80;;;;;;4590352;19;20003;-23
2022/11/18 08:14:23;;;;;;;7.43;5.18;;;12.90;87.30;;;;;;4589150;19;20015;-22
2022/11/18 08:15:54;;;;;;;8.67;5.57;;;13.00;87.10;;;;;;4589964;19;20029;-21
2022/11/18 08:17:25;;;;;;;8.25;5.97;;;13.10;86.70;;;;;;4590723;19;20524;-21